sensor_id;sensor_type;location;lat;lon;timestamp;P1;durP1;ratioP1;P2;durP2;ratioP2
9559;SDS011;4818;50.860;4.648;2022-07-23T00:02:22;14.38;;;10.32;;
9559;SDS011;4818;50.860;4.648;2022-07-23T00:04:48;15.90;;;11.45;;
9559;SDS011;4818;50.860;4.648;2022-07-23T00:07:16;17.35;;;11.80;;
9559;SDS011;4818;50.860;4.648;2022-07-23T00:09:42;16.65;;;10.05;;
9559;SDS011;4818;50.860;4.648;2022-07-23T00:12:08;13.85;;;9.88;;
9559;SDS011;4818;50.860;4.648;2022-07-23T00:14:35;18.02;;;11.80;;
9559;SDS011;4818;50.860;4.648;2022-07-23T00:17:01;16.25;;;11.18;;
9559;SDS011;4818;50.860;4.648;2022-07-23T00:19:27;15.32;;;11.93;;
9559;SDS011;4818;50.860;4.648;2022-07-23T00:21:54;19.17;;;12.30;;
9559;SDS011;4818;50.860;4.648;2022-07-23T00:24:20;26.55;;;11.82;;
9559;SDS011;4818;50.860;4.648;2022-07-23T00:26:46;19.58;;;12.68;;
9559;SDS011;4818;50.860;4.648;2022-07-23T00:29:13;19.63;;;11.98;;
9559;SDS011;4818;50.860;4.648;2022-07-23T00:31:39;16.02;;;11.77;;
9559;SDS011;4818;50.860;4.648;2022-07-23T00:34:06;16.35;;;10.52;;
9559;SDS011;4818;50.860;4.648;2022-07-23T00:36:32;21.67;;;12.63;;
9559;SDS011;4818;50.860;4.648;2022-07-23T00:38:59;18.80;;;12.75;;
9559;SDS011;4818;50.860;4.648;2022-07-23T00:41:25;18.27;;;11.93;;
9559;SDS011;4818;50.860;4.648;2022-07-23T00:43:53;15.90;;;11.70;;
9559;SDS011;4818;50.860;4.648;2022-07-23T00:46:20;16.67;;;12.55;;
9559;SDS011;4818;50.860;4.648;2022-07-23T00:48:46;19.80;;;13.50;;
9559;SDS011;4818;50.860;4.648;2022-07-23T00:51:15;19.33;;;13.00;;
9559;SDS011;4818;50.860;4.648;2022-07-23T00:53:42;17.88;;;12.55;;
9559;SDS011;4818;50.860;4.648;2022-07-23T00:56:17;18.10;;;13.05;;
9559;SDS011;4818;50.860;4.648;2022-07-23T00:58:43;21.77;;;12.80;;
9559;SDS011;4818;50.860;4.648;2022-07-23T01:01:11;19.70;;;12.20;;
9559;SDS011;4818;50.860;4.648;2022-07-23T01:03:37;20.92;;;13.73;;
9559;SDS011;4818;50.860;4.648;2022-07-23T01:06:03;17.08;;;13.40;;
9559;SDS011;4818;50.860;4.648;2022-07-23T01:08:31;17.17;;;12.20;;
9559;SDS011;4818;50.860;4.648;2022-07-23T01:10:57;18.73;;;13.13;;
9559;SDS011;4818;50.860;4.648;2022-07-23T01:13:24;16.55;;;11.38;;
9559;SDS011;4818;50.860;4.648;2022-07-23T01:15:50;21.88;;;13.18;;
9559;SDS011;4818;50.860;4.648;2022-07-23T01:18:16;17.90;;;12.38;;
9559;SDS011;4818;50.860;4.648;2022-07-23T01:20:44;17.48;;;12.32;;
9559;SDS011;4818;50.860;4.648;2022-07-23T01:23:10;20.38;;;13.38;;
9559;SDS011;4818;50.860;4.648;2022-07-23T01:25:49;21.40;;;12.52;;
9559;SDS011;4818;50.860;4.648;2022-07-23T01:28:18;18.05;;;13.43;;
9559;SDS011;4818;50.860;4.648;2022-07-23T01:30:44;19.40;;;13.38;;
9559;SDS011;4818;50.860;4.648;2022-07-23T01:33:11;19.05;;;13.13;;
9559;SDS011;4818;50.860;4.648;2022-07-23T01:35:39;15.07;;;11.68;;
9559;SDS011;4818;50.860;4.648;2022-07-23T01:38:11;17.55;;;12.77;;
9559;SDS011;4818;50.860;4.648;2022-07-23T01:40:37;22.40;;;15.18;;
9559;SDS011;4818;50.860;4.648;2022-07-23T01:43:05;21.60;;;14.27;;
9559;SDS011;4818;50.860;4.648;2022-07-23T01:45:36;21.50;;;13.43;;
9559;SDS011;4818;50.860;4.648;2022-07-23T01:48:04;21.75;;;14.82;;
9559;SDS011;4818;50.860;4.648;2022-07-23T01:50:34;24.23;;;15.45;;
9559;SDS011;4818;50.860;4.648;2022-07-23T01:53:01;17.02;;;13.48;;
9559;SDS011;4818;50.860;4.648;2022-07-23T01:55:31;23.67;;;14.60;;
9559;SDS011;4818;50.860;4.648;2022-07-23T01:57:57;25.80;;;16.92;;
9559;SDS011;4818;50.860;4.648;2022-07-23T02:00:24;22.10;;;14.93;;
9559;SDS011;4818;50.860;4.648;2022-07-23T02:02:50;22.13;;;14.15;;
9559;SDS011;4818;50.860;4.648;2022-07-23T02:05:16;20.25;;;13.52;;
9559;SDS011;4818;50.860;4.648;2022-07-23T02:07:44;22.77;;;14.70;;
9559;SDS011;4818;50.860;4.648;2022-07-23T02:10:10;24.05;;;14.60;;
9559;SDS011;4818;50.860;4.648;2022-07-23T02:12:37;20.15;;;14.60;;
9559;SDS011;4818;50.860;4.648;2022-07-23T02:15:04;22.80;;;16.17;;
9559;SDS011;4818;50.860;4.648;2022-07-23T02:17:32;22.50;;;16.65;;
9559;SDS011;4818;50.860;4.648;2022-07-23T02:19:58;25.00;;;16.17;;
9559;SDS011;4818;50.860;4.648;2022-07-23T02:22:27;22.63;;;16.40;;
9559;SDS011;4818;50.860;4.648;2022-07-23T02:24:57;24.42;;;15.57;;
9559;SDS011;4818;50.860;4.648;2022-07-23T02:27:23;17.75;;;14.18;;
9559;SDS011;4818;50.860;4.648;2022-07-23T02:29:49;26.02;;;15.70;;
9559;SDS011;4818;50.860;4.648;2022-07-23T02:32:17;23.25;;;14.63;;
9559;SDS011;4818;50.860;4.648;2022-07-23T02:34:43;23.70;;;15.48;;
9559;SDS011;4818;50.860;4.648;2022-07-23T02:37:12;20.20;;;14.55;;
9559;SDS011;4818;50.860;4.648;2022-07-23T02:39:44;23.08;;;14.20;;
9559;SDS011;4818;50.860;4.648;2022-07-23T02:42:24;21.70;;;14.27;;
9559;SDS011;4818;50.860;4.648;2022-07-23T02:44:51;22.80;;;15.13;;
9559;SDS011;4818;50.860;4.648;2022-07-23T02:47:17;19.48;;;14.27;;
9559;SDS011;4818;50.860;4.648;2022-07-23T02:49:43;26.35;;;15.02;;
9559;SDS011;4818;50.860;4.648;2022-07-23T02:52:09;19.00;;;12.93;;
9559;SDS011;4818;50.860;4.648;2022-07-23T02:54:37;17.20;;;12.07;;
9559;SDS011;4818;50.860;4.648;2022-07-23T02:57:06;21.15;;;13.70;;
9559;SDS011;4818;50.860;4.648;2022-07-23T02:59:36;19.38;;;13.82;;
9559;SDS011;4818;50.860;4.648;2022-07-23T03:02:09;23.27;;;15.07;;
9559;SDS011;4818;50.860;4.648;2022-07-23T03:04:36;22.95;;;16.67;;
9559;SDS011;4818;50.860;4.648;2022-07-23T03:07:02;22.77;;;15.07;;
9559;SDS011;4818;50.860;4.648;2022-07-23T03:09:29;23.40;;;14.95;;
9559;SDS011;4818;50.860;4.648;2022-07-23T03:11:56;21.65;;;13.85;;
9559;SDS011;4818;50.860;4.648;2022-07-23T03:14:23;16.13;;;12.45;;
9559;SDS011;4818;50.860;4.648;2022-07-23T03:16:49;23.98;;;14.75;;
9559;SDS011;4818;50.860;4.648;2022-07-23T03:19:16;22.88;;;14.40;;
9559;SDS011;4818;50.860;4.648;2022-07-23T03:21:42;28.23;;;14.05;;
9559;SDS011;4818;50.860;4.648;2022-07-23T03:24:08;18.27;;;12.48;;
9559;SDS011;4818;50.860;4.648;2022-07-23T03:26:35;19.60;;;13.07;;
9559;SDS011;4818;50.860;4.648;2022-07-23T03:29:02;23.50;;;14.27;;
9559;SDS011;4818;50.860;4.648;2022-07-23T03:31:29;18.40;;;13.68;;
9559;SDS011;4818;50.860;4.648;2022-07-23T03:33:57;20.77;;;13.40;;
9559;SDS011;4818;50.860;4.648;2022-07-23T03:36:23;19.42;;;13.27;;
9559;SDS011;4818;50.860;4.648;2022-07-23T03:38:50;22.60;;;15.13;;
9559;SDS011;4818;50.860;4.648;2022-07-23T03:41:17;21.88;;;14.38;;
9559;SDS011;4818;50.860;4.648;2022-07-23T03:43:44;21.88;;;14.05;;
9559;SDS011;4818;50.860;4.648;2022-07-23T03:46:11;22.35;;;15.38;;
9559;SDS011;4818;50.860;4.648;2022-07-23T03:48:37;19.80;;;12.65;;
9559;SDS011;4818;50.860;4.648;2022-07-23T03:51:06;24.92;;;14.07;;
9559;SDS011;4818;50.860;4.648;2022-07-23T03:53:34;19.17;;;12.27;;
9559;SDS011;4818;50.860;4.648;2022-07-23T03:56:07;23.92;;;13.77;;
9559;SDS011;4818;50.860;4.648;2022-07-23T03:58:42;17.73;;;10.93;;
9559;SDS011;4818;50.860;4.648;2022-07-23T04:01:23;19.42;;;11.38;;
9559;SDS011;4818;50.860;4.648;2022-07-23T04:04:10;22.23;;;13.73;;
9559;SDS011;4818;50.860;4.648;2022-07-23T04:06:38;19.15;;;11.52;;
9559;SDS011;4818;50.860;4.648;2022-07-23T04:09:07;17.17;;;11.80;;
9559;SDS011;4818;50.860;4.648;2022-07-23T04:11:43;21.98;;;10.45;;
9559;SDS011;4818;50.860;4.648;2022-07-23T04:14:09;17.35;;;11.77;;
9559;SDS011;4818;50.860;4.648;2022-07-23T04:16:35;16.48;;;10.85;;
9559;SDS011;4818;50.860;4.648;2022-07-23T04:19:03;14.73;;;11.20;;
9559;SDS011;4818;50.860;4.648;2022-07-23T04:21:31;20.45;;;11.55;;
9559;SDS011;4818;50.860;4.648;2022-07-23T04:23:57;15.13;;;11.63;;
9559;SDS011;4818;50.860;4.648;2022-07-23T04:26:24;15.57;;;10.43;;
9559;SDS011;4818;50.860;4.648;2022-07-23T04:28:53;14.18;;;10.07;;
9559;SDS011;4818;50.860;4.648;2022-07-23T04:31:19;16.60;;;10.65;;
9559;SDS011;4818;50.860;4.648;2022-07-23T04:33:47;18.63;;;12.23;;
9559;SDS011;4818;50.860;4.648;2022-07-23T04:36:13;20.40;;;13.02;;
9559;SDS011;4818;50.860;4.648;2022-07-23T04:38:39;17.52;;;11.23;;
9559;SDS011;4818;50.860;4.648;2022-07-23T04:41:05;22.00;;;12.57;;
9559;SDS011;4818;50.860;4.648;2022-07-23T04:43:33;19.70;;;12.43;;
9559;SDS011;4818;50.860;4.648;2022-07-23T04:45:59;17.63;;;12.40;;
9559;SDS011;4818;50.860;4.648;2022-07-23T04:48:25;19.52;;;12.10;;
9559;SDS011;4818;50.860;4.648;2022-07-23T04:50:52;16.58;;;13.20;;
9559;SDS011;4818;50.860;4.648;2022-07-23T04:53:18;17.80;;;11.80;;
9559;SDS011;4818;50.860;4.648;2022-07-23T04:55:45;18.08;;;11.63;;
9559;SDS011;4818;50.860;4.648;2022-07-23T04:58:11;18.38;;;12.73;;
9559;SDS011;4818;50.860;4.648;2022-07-23T05:00:37;18.63;;;12.23;;
9559;SDS011;4818;50.860;4.648;2022-07-23T05:03:03;17.75;;;11.10;;
9559;SDS011;4818;50.860;4.648;2022-07-23T05:05:31;16.38;;;10.55;;
9559;SDS011;4818;50.860;4.648;2022-07-23T05:07:58;20.70;;;11.43;;
9559;SDS011;4818;50.860;4.648;2022-07-23T05:10:28;13.00;;;10.20;;
9559;SDS011;4818;50.860;4.648;2022-07-23T05:12:54;18.52;;;11.55;;
9559;SDS011;4818;50.860;4.648;2022-07-23T05:15:21;16.40;;;10.68;;
9559;SDS011;4818;50.860;4.648;2022-07-23T05:17:48;17.08;;;10.18;;
9559;SDS011;4818;50.860;4.648;2022-07-23T05:20:15;18.02;;;10.05;;
9559;SDS011;4818;50.860;4.648;2022-07-23T05:22:42;18.20;;;12.40;;
9559;SDS011;4818;50.860;4.648;2022-07-23T05:25:08;18.98;;;11.27;;
9559;SDS011;4818;50.860;4.648;2022-07-23T05:27:35;17.63;;;11.18;;
9559;SDS011;4818;50.860;4.648;2022-07-23T05:30:01;16.50;;;11.95;;
9559;SDS011;4818;50.860;4.648;2022-07-23T05:32:27;12.75;;;9.40;;
9559;SDS011;4818;50.860;4.648;2022-07-23T05:34:53;16.52;;;10.32;;
9559;SDS011;4818;50.860;4.648;2022-07-23T05:37:20;14.43;;;10.30;;
9559;SDS011;4818;50.860;4.648;2022-07-23T05:39:47;18.38;;;10.30;;
9559;SDS011;4818;50.860;4.648;2022-07-23T05:42:15;12.68;;;9.50;;
9559;SDS011;4818;50.860;4.648;2022-07-23T05:44:41;13.13;;;9.45;;
9559;SDS011;4818;50.860;4.648;2022-07-23T05:47:07;14.50;;;9.90;;
9559;SDS011;4818;50.860;4.648;2022-07-23T05:49:37;15.13;;;9.90;;
9559;SDS011;4818;50.860;4.648;2022-07-23T05:52:04;13.23;;;9.07;;
9559;SDS011;4818;50.860;4.648;2022-07-23T05:54:33;12.82;;;9.43;;
9559;SDS011;4818;50.860;4.648;2022-07-23T05:57:00;15.98;;;10.95;;
9559;SDS011;4818;50.860;4.648;2022-07-23T05:59:26;16.88;;;9.60;;
9559;SDS011;4818;50.860;4.648;2022-07-23T06:01:52;14.52;;;9.68;;
9559;SDS011;4818;50.860;4.648;2022-07-23T06:04:20;10.98;;;9.25;;
9559;SDS011;4818;50.860;4.648;2022-07-23T06:06:47;12.23;;;9.45;;
9559;SDS011;4818;50.860;4.648;2022-07-23T06:09:14;11.77;;;7.90;;
9559;SDS011;4818;50.860;4.648;2022-07-23T06:11:41;8.43;;;7.07;;
9559;SDS011;4818;50.860;4.648;2022-07-23T06:14:07;15.65;;;9.77;;
9559;SDS011;4818;50.860;4.648;2022-07-23T06:16:33;10.20;;;8.00;;
9559;SDS011;4818;50.860;4.648;2022-07-23T06:18:59;11.85;;;9.75;;
9559;SDS011;4818;50.860;4.648;2022-07-23T06:21:29;13.68;;;10.43;;
9559;SDS011;4818;50.860;4.648;2022-07-23T06:23:55;13.85;;;8.93;;
9559;SDS011;4818;50.860;4.648;2022-07-23T06:26:21;9.50;;;7.80;;
9559;SDS011;4818;50.860;4.648;2022-07-23T06:28:47;12.07;;;8.13;;
9559;SDS011;4818;50.860;4.648;2022-07-23T06:31:14;9.20;;;7.10;;
9559;SDS011;4818;50.860;4.648;2022-07-23T06:33:40;9.60;;;7.55;;
9559;SDS011;4818;50.860;4.648;2022-07-23T06:36:06;8.57;;;6.65;;
9559;SDS011;4818;50.860;4.648;2022-07-23T06:38:32;11.07;;;8.63;;
9559;SDS011;4818;50.860;4.648;2022-07-23T06:40:58;12.15;;;9.32;;
9559;SDS011;4818;50.860;4.648;2022-07-23T06:43:25;13.23;;;9.32;;
9559;SDS011;4818;50.860;4.648;2022-07-23T06:45:52;11.68;;;9.57;;
9559;SDS011;4818;50.860;4.648;2022-07-23T06:48:19;10.20;;;7.82;;
9559;SDS011;4818;50.860;4.648;2022-07-23T06:50:47;5.70;;;5.10;;
9559;SDS011;4818;50.860;4.648;2022-07-23T06:53:14;10.98;;;8.98;;
9559;SDS011;4818;50.860;4.648;2022-07-23T06:55:40;7.65;;;6.90;;
9559;SDS011;4818;50.860;4.648;2022-07-23T06:58:06;13.50;;;8.63;;
9559;SDS011;4818;50.860;4.648;2022-07-23T07:00:34;9.65;;;7.25;;
9559;SDS011;4818;50.860;4.648;2022-07-23T07:03:00;8.02;;;7.20;;
9559;SDS011;4818;50.860;4.648;2022-07-23T07:05:26;8.95;;;6.20;;
9559;SDS011;4818;50.860;4.648;2022-07-23T07:07:56;11.75;;;8.00;;
9559;SDS011;4818;50.860;4.648;2022-07-23T07:10:23;8.27;;;7.22;;
9559;SDS011;4818;50.860;4.648;2022-07-23T07:12:50;8.85;;;7.05;;
9559;SDS011;4818;50.860;4.648;2022-07-23T07:15:16;9.60;;;8.18;;
9559;SDS011;4818;50.860;4.648;2022-07-23T07:17:42;9.43;;;6.93;;
9559;SDS011;4818;50.860;4.648;2022-07-23T07:20:09;9.38;;;5.88;;
9559;SDS011;4818;50.860;4.648;2022-07-23T07:22:36;10.65;;;7.22;;
9559;SDS011;4818;50.860;4.648;2022-07-23T07:25:02;11.02;;;7.95;;
9559;SDS011;4818;50.860;4.648;2022-07-23T07:27:33;12.23;;;8.07;;
9559;SDS011;4818;50.860;4.648;2022-07-23T07:30:06;7.30;;;6.57;;
9559;SDS011;4818;50.860;4.648;2022-07-23T07:32:33;10.05;;;6.47;;
9559;SDS011;4818;50.860;4.648;2022-07-23T07:35:03;8.38;;;7.60;;
9559;SDS011;4818;50.860;4.648;2022-07-23T07:37:38;6.90;;;6.20;;
9559;SDS011;4818;50.860;4.648;2022-07-23T07:40:05;7.53;;;6.30;;
9559;SDS011;4818;50.860;4.648;2022-07-23T07:42:43;7.82;;;6.47;;
9559;SDS011;4818;50.860;4.648;2022-07-23T07:45:12;4.72;;;3.95;;
9559;SDS011;4818;50.860;4.648;2022-07-23T07:48:01;6.28;;;5.68;;
9559;SDS011;4818;50.860;4.648;2022-07-23T07:50:33;4.63;;;4.13;;
9559;SDS011;4818;50.860;4.648;2022-07-23T07:52:59;6.40;;;5.30;;
9559;SDS011;4818;50.860;4.648;2022-07-23T07:55:28;4.35;;;3.95;;
9559;SDS011;4818;50.860;4.648;2022-07-23T07:57:55;6.10;;;4.88;;
9559;SDS011;4818;50.860;4.648;2022-07-23T08:00:23;7.28;;;5.32;;
9559;SDS011;4818;50.860;4.648;2022-07-23T08:02:51;7.43;;;5.43;;
9559;SDS011;4818;50.860;4.648;2022-07-23T08:08:00;7.70;;;6.25;;
9559;SDS011;4818;50.860;4.648;2022-07-23T08:10:47;7.00;;;6.10;;
9559;SDS011;4818;50.860;4.648;2022-07-23T08:13:14;4.57;;;3.83;;
9559;SDS011;4818;50.860;4.648;2022-07-23T08:15:44;4.82;;;4.07;;
9559;SDS011;4818;50.860;4.648;2022-07-23T08:18:18;4.50;;;4.00;;
9559;SDS011;4818;50.860;4.648;2022-07-23T08:20:48;3.85;;;3.55;;
9559;SDS011;4818;50.860;4.648;2022-07-23T08:23:27;5.15;;;3.67;;
9559;SDS011;4818;50.860;4.648;2022-07-23T08:25:55;4.73;;;3.60;;
9559;SDS011;4818;50.860;4.648;2022-07-23T08:28:24;4.65;;;3.38;;
9559;SDS011;4818;50.860;4.648;2022-07-23T08:30:59;4.35;;;3.95;;
9559;SDS011;4818;50.860;4.648;2022-07-23T08:33:27;5.80;;;2.70;;
9559;SDS011;4818;50.860;4.648;2022-07-23T08:35:55;3.63;;;2.65;;
9559;SDS011;4818;50.860;4.648;2022-07-23T08:38:24;4.90;;;4.37;;
9559;SDS011;4818;50.860;4.648;2022-07-23T08:40:54;3.25;;;2.95;;
9559;SDS011;4818;50.860;4.648;2022-07-23T08:43:42;4.30;;;3.65;;
9559;SDS011;4818;50.860;4.648;2022-07-23T08:46:09;3.75;;;3.00;;
9559;SDS011;4818;50.860;4.648;2022-07-23T08:48:37;4.53;;;3.97;;
9559;SDS011;4818;50.860;4.648;2022-07-23T08:51:05;7.25;;;4.57;;
9559;SDS011;4818;50.860;4.648;2022-07-23T08:53:32;4.25;;;3.88;;
9559;SDS011;4818;50.860;4.648;2022-07-23T08:58:42;3.17;;;2.45;;
9559;SDS011;4818;50.860;4.648;2022-07-23T09:01:13;7.00;;;4.18;;
9559;SDS011;4818;50.860;4.648;2022-07-23T09:03:44;6.90;;;3.72;;
9559;SDS011;4818;50.860;4.648;2022-07-23T09:06:10;5.03;;;4.22;;
9559;SDS011;4818;50.860;4.648;2022-07-23T09:08:37;4.75;;;4.15;;
9559;SDS011;4818;50.860;4.648;2022-07-23T09:11:05;3.65;;;2.25;;
9559;SDS011;4818;50.860;4.648;2022-07-23T09:14:07;2.83;;;2.55;;
9559;SDS011;4818;50.860;4.648;2022-07-23T09:16:28;4.47;;;2.75;;
9559;SDS011;4818;50.860;4.648;2022-07-23T09:18:59;3.70;;;2.55;;
9559;SDS011;4818;50.860;4.648;2022-07-23T09:23:59;4.90;;;2.25;;
9559;SDS011;4818;50.860;4.648;2022-07-23T09:26:37;6.32;;;4.32;;
9559;SDS011;4818;50.860;4.648;2022-07-23T09:29:16;4.90;;;4.28;;
9559;SDS011;4818;50.860;4.648;2022-07-23T09:31:58;5.70;;;3.60;;
9559;SDS011;4818;50.860;4.648;2022-07-23T09:34:30;2.85;;;2.65;;
9559;SDS011;4818;50.860;4.648;2022-07-23T09:37:17;4.30;;;2.63;;
9559;SDS011;4818;50.860;4.648;2022-07-23T09:39:46;6.35;;;3.97;;
9559;SDS011;4818;50.860;4.648;2022-07-23T09:44:52;4.40;;;2.75;;
9559;SDS011;4818;50.860;4.648;2022-07-23T09:47:19;2.47;;;2.23;;
9559;SDS011;4818;50.860;4.648;2022-07-23T09:50:05;4.30;;;3.33;;
9559;SDS011;4818;50.860;4.648;2022-07-23T09:52:46;4.10;;;3.67;;
9559;SDS011;4818;50.860;4.648;2022-07-23T09:55:30;4.45;;;3.05;;
9559;SDS011;4818;50.860;4.648;2022-07-23T09:58:02;5.15;;;2.47;;
9559;SDS011;4818;50.860;4.648;2022-07-23T10:00:30;3.83;;;2.45;;
9559;SDS011;4818;50.860;4.648;2022-07-23T10:03:00;3.28;;;2.10;;
9559;SDS011;4818;50.860;4.648;2022-07-23T10:05:30;2.80;;;1.70;;
9559;SDS011;4818;50.860;4.648;2022-07-23T10:08:01;1.63;;;1.10;;
9559;SDS011;4818;50.860;4.648;2022-07-23T10:10:31;2.58;;;1.38;;
9559;SDS011;4818;50.860;4.648;2022-07-23T10:13:00;2.63;;;1.55;;
9559;SDS011;4818;50.860;4.648;2022-07-23T10:15:50;1.67;;;1.30;;
9559;SDS011;4818;50.860;4.648;2022-07-23T10:18:18;3.30;;;1.67;;
9559;SDS011;4818;50.860;4.648;2022-07-23T10:20:56;3.15;;;1.75;;
9559;SDS011;4818;50.860;4.648;2022-07-23T10:23:24;2.22;;;1.63;;
9559;SDS011;4818;50.860;4.648;2022-07-23T10:31:10;1.77;;;0.60;;
9559;SDS011;4818;50.860;4.648;2022-07-23T10:33:56;2.90;;;0.63;;
9559;SDS011;4818;50.860;4.648;2022-07-23T10:37:07;1.52;;;1.02;;
9559;SDS011;4818;50.860;4.648;2022-07-23T10:39:29;2.88;;;1.00;;
9559;SDS011;4818;50.860;4.648;2022-07-23T10:42:13;1.30;;;0.60;;
9559;SDS011;4818;50.860;4.648;2022-07-23T10:44:41;3.45;;;0.70;;
9559;SDS011;4818;50.860;4.648;2022-07-23T10:57:58;1.67;;;0.40;;
9559;SDS011;4818;50.860;4.648;2022-07-23T11:00:30;0.90;;;0.40;;
9559;SDS011;4818;50.860;4.648;2022-07-23T11:03:04;1.65;;;0.55;;
9559;SDS011;4818;50.860;4.648;2022-07-23T11:05:40;2.13;;;0.70;;
9559;SDS011;4818;50.860;4.648;2022-07-23T11:37:04;2.10;;;0.60;;
9559;SDS011;4818;50.860;4.648;2022-07-23T11:39:31;2.10;;;0.40;;
9559;SDS011;4818;50.860;4.648;2022-07-23T11:41:58;1.63;;;0.50;;
9559;SDS011;4818;50.860;4.648;2022-07-23T11:44:28;0.75;;;0.40;;
9559;SDS011;4818;50.860;4.648;2022-07-23T11:46:56;7.43;;;0.63;;
9559;SDS011;4818;50.860;4.648;2022-07-23T11:49:52;1.98;;;0.50;;
9559;SDS011;4818;50.860;4.648;2022-07-23T11:52:20;2.00;;;0.50;;
9559;SDS011;4818;50.860;4.648;2022-07-23T11:54:54;1.33;;;0.52;;
9559;SDS011;4818;50.860;4.648;2022-07-23T11:57:24;2.67;;;0.77;;
9559;SDS011;4818;50.860;4.648;2022-07-23T11:59:52;2.13;;;0.70;;
9559;SDS011;4818;50.860;4.648;2022-07-23T12:04:47;2.30;;;0.50;;
9559;SDS011;4818;50.860;4.648;2022-07-23T12:09:49;1.38;;;0.60;;
9559;SDS011;4818;50.860;4.648;2022-07-23T12:12:16;1.20;;;0.57;;
9559;SDS011;4818;50.860;4.648;2022-07-23T12:14:52;2.85;;;0.40;;
9559;SDS011;4818;50.860;4.648;2022-07-23T12:17:19;0.95;;;0.60;;
9559;SDS011;4818;50.860;4.648;2022-07-23T12:19:45;1.15;;;0.55;;
9559;SDS011;4818;50.860;4.648;2022-07-23T12:22:12;0.90;;;0.50;;
9559;SDS011;4818;50.860;4.648;2022-07-23T12:25:00;3.40;;;0.60;;
9559;SDS011;4818;50.860;4.648;2022-07-23T12:27:28;1.08;;;0.50;;
9559;SDS011;4818;50.860;4.648;2022-07-23T12:29:54;2.15;;;0.63;;
9559;SDS011;4818;50.860;4.648;2022-07-23T12:32:25;1.98;;;0.80;;
9559;SDS011;4818;50.860;4.648;2022-07-23T12:35:05;1.95;;;0.70;;
9559;SDS011;4818;50.860;4.648;2022-07-23T12:37:32;1.52;;;0.55;;
9559;SDS011;4818;50.860;4.648;2022-07-23T12:40:17;1.55;;;1.02;;
9559;SDS011;4818;50.860;4.648;2022-07-23T12:42:45;1.15;;;0.52;;
9559;SDS011;4818;50.860;4.648;2022-07-23T12:45:11;1.48;;;0.73;;
9559;SDS011;4818;50.860;4.648;2022-07-23T12:48:04;1.23;;;0.63;;
9559;SDS011;4818;50.860;4.648;2022-07-23T12:53:03;3.00;;;0.82;;
9559;SDS011;4818;50.860;4.648;2022-07-23T12:55:30;2.28;;;0.82;;
9559;SDS011;4818;50.860;4.648;2022-07-23T12:58:06;1.63;;;0.93;;
9559;SDS011;4818;50.860;4.648;2022-07-23T13:03:39;4.15;;;0.70;;
9559;SDS011;4818;50.860;4.648;2022-07-23T13:06:07;3.38;;;0.73;;
9559;SDS011;4818;50.860;4.648;2022-07-23T13:08:35;1.57;;;0.77;;
9559;SDS011;4818;50.860;4.648;2022-07-23T13:11:36;1.45;;;0.93;;
9559;SDS011;4818;50.860;4.648;2022-07-23T13:13:57;1.05;;;0.60;;
9559;SDS011;4818;50.860;4.648;2022-07-23T13:16:27;7.60;;;1.02;;
9559;SDS011;4818;50.860;4.648;2022-07-23T13:18:54;2.75;;;0.88;;
9559;SDS011;4818;50.860;4.648;2022-07-23T13:21:24;1.70;;;0.95;;
9559;SDS011;4818;50.860;4.648;2022-07-23T13:23:50;2.20;;;1.08;;
9559;SDS011;4818;50.860;4.648;2022-07-23T13:26:17;3.92;;;1.10;;
9559;SDS011;4818;50.860;4.648;2022-07-23T13:28:44;4.05;;;1.30;;
9559;SDS011;4818;50.860;4.648;2022-07-23T13:31:21;5.20;;;1.00;;
9559;SDS011;4818;50.860;4.648;2022-07-23T13:33:49;2.03;;;1.23;;
9559;SDS011;4818;50.860;4.648;2022-07-23T13:36:20;1.90;;;1.08;;
9559;SDS011;4818;50.860;4.648;2022-07-23T13:38:46;2.53;;;1.05;;
9559;SDS011;4818;50.860;4.648;2022-07-23T13:41:12;4.13;;;1.00;;
9559;SDS011;4818;50.860;4.648;2022-07-23T13:43:41;1.53;;;1.23;;
9559;SDS011;4818;50.860;4.648;2022-07-23T13:46:07;2.10;;;1.00;;
9559;SDS011;4818;50.860;4.648;2022-07-23T13:48:34;1.92;;;0.98;;
9559;SDS011;4818;50.860;4.648;2022-07-23T13:51:00;6.22;;;1.30;;
9559;SDS011;4818;50.860;4.648;2022-07-23T13:53:26;2.10;;;0.85;;
9559;SDS011;4818;50.860;4.648;2022-07-23T13:55:53;2.75;;;1.20;;
9559;SDS011;4818;50.860;4.648;2022-07-23T13:58:20;1.95;;;0.90;;
9559;SDS011;4818;50.860;4.648;2022-07-23T14:00:48;2.72;;;1.77;;
9559;SDS011;4818;50.860;4.648;2022-07-23T14:03:15;3.00;;;0.98;;
9559;SDS011;4818;50.860;4.648;2022-07-23T14:05:45;2.20;;;0.90;;
9559;SDS011;4818;50.860;4.648;2022-07-23T14:08:12;2.38;;;1.50;;
9559;SDS011;4818;50.860;4.648;2022-07-23T14:10:38;3.00;;;0.98;;
9559;SDS011;4818;50.860;4.648;2022-07-23T14:13:05;3.78;;;1.00;;
9559;SDS011;4818;50.860;4.648;2022-07-23T14:15:31;2.45;;;0.80;;
9559;SDS011;4818;50.860;4.648;2022-07-23T14:17:59;2.63;;;0.93;;
9559;SDS011;4818;50.860;4.648;2022-07-23T14:20:26;2.67;;;1.00;;
9559;SDS011;4818;50.860;4.648;2022-07-23T14:22:53;2.10;;;0.98;;
9559;SDS011;4818;50.860;4.648;2022-07-23T14:25:20;2.45;;;1.50;;
9559;SDS011;4818;50.860;4.648;2022-07-23T14:27:48;1.63;;;0.95;;
9559;SDS011;4818;50.860;4.648;2022-07-23T14:30:14;3.78;;;0.82;;
9559;SDS011;4818;50.860;4.648;2022-07-23T14:32:40;2.90;;;0.77;;
9559;SDS011;4818;50.860;4.648;2022-07-23T14:35:07;1.50;;;0.80;;
9559;SDS011;4818;50.860;4.648;2022-07-23T14:37:33;2.67;;;1.00;;
9559;SDS011;4818;50.860;4.648;2022-07-23T14:40:00;1.23;;;0.95;;
9559;SDS011;4818;50.860;4.648;2022-07-23T14:42:26;2.13;;;0.85;;
9559;SDS011;4818;50.860;4.648;2022-07-23T14:44:53;2.20;;;0.82;;
9559;SDS011;4818;50.860;4.648;2022-07-23T14:47:19;1.98;;;0.93;;
9559;SDS011;4818;50.860;4.648;2022-07-23T14:49:45;2.40;;;1.30;;
9559;SDS011;4818;50.860;4.648;2022-07-23T14:52:12;2.03;;;1.00;;
9559;SDS011;4818;50.860;4.648;2022-07-23T14:54:38;2.25;;;1.45;;
9559;SDS011;4818;50.860;4.648;2022-07-23T14:57:04;2.38;;;0.90;;
9559;SDS011;4818;50.860;4.648;2022-07-23T14:59:33;3.00;;;1.48;;
9559;SDS011;4818;50.860;4.648;2022-07-23T15:01:59;3.80;;;1.65;;
9559;SDS011;4818;50.860;4.648;2022-07-23T15:04:25;1.70;;;1.17;;
9559;SDS011;4818;50.860;4.648;2022-07-23T15:06:52;2.28;;;1.65;;
9559;SDS011;4818;50.860;4.648;2022-07-23T15:09:19;1.63;;;1.52;;
9559;SDS011;4818;50.860;4.648;2022-07-23T15:11:45;2.13;;;1.60;;
9559;SDS011;4818;50.860;4.648;2022-07-23T15:14:12;3.45;;;2.03;;
9559;SDS011;4818;50.860;4.648;2022-07-23T15:16:38;3.00;;;2.08;;
9559;SDS011;4818;50.860;4.648;2022-07-23T15:19:05;3.45;;;2.20;;
9559;SDS011;4818;50.860;4.648;2022-07-23T15:21:31;2.50;;;2.30;;
9559;SDS011;4818;50.860;4.648;2022-07-23T15:23:57;5.85;;;1.92;;
9559;SDS011;4818;50.860;4.648;2022-07-23T15:26:24;5.35;;;1.85;;
9559;SDS011;4818;50.860;4.648;2022-07-23T15:28:51;3.80;;;2.40;;
9559;SDS011;4818;50.860;4.648;2022-07-23T15:31:17;4.47;;;1.80;;
9559;SDS011;4818;50.860;4.648;2022-07-23T15:33:44;4.47;;;2.13;;
9559;SDS011;4818;50.860;4.648;2022-07-23T15:36:10;4.90;;;2.30;;
9559;SDS011;4818;50.860;4.648;2022-07-23T15:38:36;2.25;;;1.23;;
9559;SDS011;4818;50.860;4.648;2022-07-23T15:41:02;3.53;;;1.60;;
9559;SDS011;4818;50.860;4.648;2022-07-23T15:43:29;5.22;;;2.10;;
9559;SDS011;4818;50.860;4.648;2022-07-23T15:45:56;2.88;;;1.63;;
9559;SDS011;4818;50.860;4.648;2022-07-23T15:48:22;5.00;;;2.00;;
9559;SDS011;4818;50.860;4.648;2022-07-23T15:50:49;4.45;;;2.00;;
9559;SDS011;4818;50.860;4.648;2022-07-23T15:53:15;2.33;;;1.85;;
9559;SDS011;4818;50.860;4.648;2022-07-23T15:55:42;2.35;;;1.80;;
9559;SDS011;4818;50.860;4.648;2022-07-23T15:58:09;2.67;;;1.50;;
9559;SDS011;4818;50.860;4.648;2022-07-23T16:00:36;4.85;;;1.58;;
9559;SDS011;4818;50.860;4.648;2022-07-23T16:03:02;3.05;;;2.00;;
9559;SDS011;4818;50.860;4.648;2022-07-23T16:05:28;6.65;;;2.17;;
9559;SDS011;4818;50.860;4.648;2022-07-23T16:07:59;4.72;;;2.15;;
9559;SDS011;4818;50.860;4.648;2022-07-23T16:10:25;2.15;;;1.90;;
9559;SDS011;4818;50.860;4.648;2022-07-23T16:12:51;3.58;;;2.40;;
9559;SDS011;4818;50.860;4.648;2022-07-23T16:15:17;4.28;;;2.28;;
9559;SDS011;4818;50.860;4.648;2022-07-23T16:17:44;2.30;;;2.05;;
9559;SDS011;4818;50.860;4.648;2022-07-23T16:20:10;6.72;;;1.77;;